Gary, IN

4:04 AM CDT on July 28, 2015 (GMT -0500)
Gary / Chicago | | Change Station
CLOSE
Current Station
Airport
Location: Gary,
Elevation: 591 ft
Nearby Weather Stations
Active Advisory: Flood Warning

Elev 591 ft 41.62 °N, 87.41 °W | Updated 9 minutes ago

Clear
Clear
65 °F
Feels Like 65 °F
N
0
Wind Variable Wind from North

Today
High -- | Low -- °F
--% Chance of Precip.
Yesterday
High -- | Low -- °F
Precip. -- in
5:39 AM 8:11 PM
Waxing Gibbous, 88% visible
Pressure 29.99 in
Visibility 7.0 miles
Clouds Clear
Dew Point 64 °F
Humidity 98%
Rainfall 0.00 in
Snow Depth Not available.
UV 0 out of 12
Pollen 4.50 out of 12
Air Quality Not available.
Flu Activity Not available.
METAR KGYY 280855Z AUTO 00000KT 7SM CLR 18/18 A2999 RMK AO2 T01820179

More Conditions Fewer Conditions

Pressure 29.99 in
Visibility 7.0 miles
Clouds Clear
Dew Point 64 °F
Humidity 98%
Rainfall 0.00 in
Snow Depth Not available.
UV 0 out of 12
Pollen 4.50 out of 12
Air Quality Not available.
Flu Activity Not available.
METAR KGYY 280855Z AUTO 00000KT 7SM CLR 18/18 A2999 RMK AO2 T01820179

More Conditions Fewer Conditions

10-Day Weather Forecast

×

Almanac

Astronomy

Jul. 28, 2015 Rise Set
Actual Time
Civil Twilight
Nautical Twilight
Astronomical Twilight
Moon
Length of Visible Light
Length of Day
Tomorrow will be .
, % of the Moon is Illuminated

Today's Extremes

State Highs State Lows

Community

WunderPhotos

Upload Photos

1,841,801 photos uploaded!

WunderBlogs® & News

Nearby

Air Quality

  Air Quality AQ Index Pollutant
Not available.

Snow Depth

Station Depth Elevation

Earthquake Activity

City Distance Mag. Time & Date
Minimum magnitude displayed is 2.5.

Coastal Water Temperatures

Place Temperature

Stations

Nearby Weather Stations

Station Location Temp. Windchill Dew Point Humidity Wind Precip. Elev Updated Type
                   
Flood Warning
Statement as of 8:48 PM CDT on July 27, 2015

The Flood Warning continues for
the Kankakee River at Shelby.
* Until Wednesday evening.
* At 745 PM Monday the stage was 9.7 feet.
* Flood stage is 9.0 feet.
* Minor flooding is occurring and minor flooding is forecast.
* Forecast... the river will continue to fall to below flood stage by
Wednesday afternoon.
* Impact... at 10.0 feet... flooding affects County and local roads.
Wildwood Estates and Sumava Resorts begin to experience some
flooding.


Lat... Lon 4127 8727 4121 8756 4111 8753 4118 8722